Blowing Rock, NC (28605)

10:42 PM EST on March 03, 2015 (GMT -0500)
Blowing Rock School | Change Station
CLOSE
Current Station
Personal Weather Station
Location: Blowing Rock, NC
Elevation: 3540 ft
Nearby Weather Stations

Elev 3540 ft 36.13 °N, 81.68 °W | Updated 5 minutes ago

Overcast
Overcast
46.0 °F
Feels Like 46 °F
N
0.0
Wind Variable Wind from ENE
Gusts 2.0 mph

Today
High -- | Low -- °F
--% Chance of Precip.
Yesterday
High -- | Low -- °F
Precip. -- in
6:54 AM 6:23 PM
Waxing Gibbous, 98% visible
Pressure 30.04 in
Visibility 10.0 miles
Clouds Scattered Clouds 3500 ft
Mostly Cloudy 4500 ft
Mostly Cloudy 6000 ft
Windchill 46 °F
Dew Point 45 °F
Humidity 97%
Rainfall 0.04 in
Snow Depth Not available.
UV 0 out of 12
Pollen 3.10 out of 12
Air Quality Not available.
Flu Activity Not available.
METAR KTNB 040335Z AUTO 21009KT 10SM SCT035 BKN045 BKN060 10/10 A3004 RMK AO2 T01010099

More Conditions Fewer Conditions

Pressure 30.04 in
Visibility 10.0 miles
Clouds Scattered Clouds 3500 ft
Mostly Cloudy 4500 ft
Mostly Cloudy 6000 ft
Windchill 46 °F
Dew Point 45 °F
Humidity 97%
Rainfall 0.04 in
Snow Depth Not available.
UV 0 out of 12
Pollen 3.10 out of 12
Air Quality Not available.
Flu Activity Not available.
METAR KTNB 040335Z AUTO 21009KT 10SM SCT035 BKN045 BKN060 10/10 A3004 RMK AO2 T01010099

More Conditions Fewer Conditions

10-Day Weather Forecast

Almanac

Astronomy

Mar. 03, 2015 Rise Set
Actual Time
Civil Twilight
Nautical Twilight
Astronomical Twilight
Moon
Length of Visible Light
Length of Day
Tomorrow will be .
, % of the Moon is Illuminated

Today's Extremes

State Highs State Lows

Community

WunderPhotos

Upload Photos

1,802,379 photos uploaded!

WunderBlogs® & News

Nearby

Air Quality

  Air Quality AQ Index Pollutant
Not available.

Snow Depth

Station Depth Elevation

Earthquake Activity

City Distance Mag. Time & Date
Minimum magnitude displayed is 2.5.

Coastal Water Temperatures

Place Temperature

Nearby Weather Stations